sensor_id;sensor_type;location;lat;lon;timestamp;pressure;altitude;pressure_sealevel;temperature;humidity
48390;BME280;34643;47.964;7.982;2022-12-10T00:02:15;95377.22;;;16.99;54.23
48390;BME280;34643;47.964;7.982;2022-12-10T00:07:15;95364.31;;;16.98;54.35
48390;BME280;34643;47.964;7.982;2022-12-10T00:12:16;95371.19;;;16.99;54.34
48390;BME280;34643;47.964;7.982;2022-12-10T00:17:16;95373.78;;;16.99;54.31
48390;BME280;34643;47.964;7.982;2022-12-10T00:22:16;95384.22;;;16.99;54.24
48390;BME280;34643;47.964;7.982;2022-12-10T00:27:17;95395.47;;;16.99;54.24
48390;BME280;34643;47.964;7.982;2022-12-10T00:32:17;95392.03;;;16.99;54.25
48390;BME280;34643;47.964;7.982;2022-12-10T00:37:17;95397.94;;;17.01;54.23
48390;BME280;34643;47.964;7.982;2022-12-10T00:42:18;95372.81;;;17.00;54.45
48390;BME280;34643;47.964;7.982;2022-12-10T00:47:19;95368.59;;;16.99;54.26
48390;BME280;34643;47.964;7.982;2022-12-10T00:52:20;95377.06;;;17.01;54.24
48390;BME280;34643;47.964;7.982;2022-12-10T00:57:21;95379.00;;;16.99;54.26
48390;BME280;34643;47.964;7.982;2022-12-10T01:02:21;95372.00;;;16.99;54.19
48390;BME280;34643;47.964;7.982;2022-12-10T01:07:23;95378.88;;;17.00;54.22
48390;BME280;34643;47.964;7.982;2022-12-10T01:12:23;95395.47;;;16.99;54.13
48390;BME280;34643;47.964;7.982;2022-12-10T01:17:24;95403.28;;;16.99;54.32
48390;BME280;34643;47.964;7.982;2022-12-10T01:22:24;95406.69;;;17.00;54.18
48390;BME280;34643;47.964;7.982;2022-12-10T01:27:25;95426.59;;;17.01;54.39
48390;BME280;34643;47.964;7.982;2022-12-10T01:32:25;95425.63;;;17.02;54.17
48390;BME280;34643;47.964;7.982;2022-12-10T01:37:25;95393.00;;;16.98;54.31
48390;BME280;34643;47.964;7.982;2022-12-10T01:42:26;95397.53;;;16.96;54.19
48390;BME280;34643;47.964;7.982;2022-12-10T01:47:26;95395.75;;;16.96;54.01
48390;BME280;34643;47.964;7.982;2022-12-10T01:52:27;95405.22;;;16.97;53.77
48390;BME280;34643;47.964;7.982;2022-12-10T01:57:29;95407.16;;;16.95;53.85
48390;BME280;34643;47.964;7.982;2022-12-10T02:02:34;95415.78;;;16.96;53.57
48390;BME280;34643;47.964;7.982;2022-12-10T02:12:47;95415.09;;;16.94;53.56
48390;BME280;34643;47.964;7.982;2022-12-10T02:17:49;95415.91;;;16.94;53.53
48390;BME280;34643;47.964;7.982;2022-12-10T02:22:52;95418.38;;;16.96;53.42
48390;BME280;34643;47.964;7.982;2022-12-10T02:28:13;95412.50;;;16.94;53.62
48390;BME280;34643;47.964;7.982;2022-12-10T02:33:18;95428.81;;;16.96;53.45
48390;BME280;34643;47.964;7.982;2022-12-10T02:38:22;95415.78;;;16.96;53.24
48390;BME280;34643;47.964;7.982;2022-12-10T02:43:24;95418.38;;;16.96;53.31
48390;BME280;34643;47.964;7.982;2022-12-10T02:48:26;95421.81;;;16.96;53.37
48390;BME280;34643;47.964;7.982;2022-12-10T02:53:26;95418.38;;;16.96;53.32
48390;BME280;34643;47.964;7.982;2022-12-10T02:58:36;95414.66;;;16.98;53.28
48390;BME280;34643;47.964;7.982;2022-12-10T03:03:52;95414.50;;;17.00;52.97
48390;BME280;34643;47.964;7.982;2022-12-10T03:08:59;95422.34;;;17.00;53.24
48390;BME280;34643;47.964;7.982;2022-12-10T03:14:05;95426.88;;;16.98;53.23
48390;BME280;34643;47.964;7.982;2022-12-10T03:19:14;95421.66;;;16.98;53.07
48390;BME280;34643;47.964;7.982;2022-12-10T03:24:16;95415.78;;;16.96;53.18
48390;BME280;34643;47.964;7.982;2022-12-10T03:29:17;95427.16;;;16.95;53.25
48390;BME280;34643;47.964;7.982;2022-12-10T03:34:21;95423.59;;;16.96;53.09
48390;BME280;34643;47.964;7.982;2022-12-10T03:39:22;95416.06;;;16.92;53.27
48390;BME280;34643;47.964;7.982;2022-12-10T03:44:30;95411.84;;;16.91;53.05
48390;BME280;34643;47.964;7.982;2022-12-10T03:49:31;95397.81;;;16.92;53.05
48390;BME280;34643;47.964;7.982;2022-12-10T03:54:31;95401.28;;;16.93;52.94
48390;BME280;34643;47.964;7.982;2022-12-10T03:59:32;95397.81;;;16.92;53.04
48390;BME280;34643;47.964;7.982;2022-12-10T04:04:32;95406.63;;;16.91;53.13
48390;BME280;34643;47.964;7.982;2022-12-10T04:09:32;95402.22;;;16.92;53.19
48390;BME280;34643;47.964;7.982;2022-12-10T04:14:33;95396.19;;;16.91;53.17
48390;BME280;34643;47.964;7.982;2022-12-10T04:19:52;95402.22;;;16.92;53.17
48390;BME280;34643;47.964;7.982;2022-12-10T04:24:52;95410.03;;;16.92;53.10
48390;BME280;34643;47.964;7.982;2022-12-10T04:30:28;95420.59;;;16.90;53.20
48390;BME280;34643;47.964;7.982;2022-12-10T04:35:29;95413.47;;;16.92;53.12
48390;BME280;34643;47.964;7.982;2022-12-10T04:40:29;95407.56;;;16.90;52.94
48390;BME280;34643;47.964;7.982;2022-12-10T04:45:29;95408.38;;;16.91;53.18
48390;BME280;34643;47.964;7.982;2022-12-10T04:50:30;95402.50;;;16.89;53.22
48390;BME280;34643;47.964;7.982;2022-12-10T04:55:30;95400.03;;;16.87;53.07
48390;BME280;34643;47.964;7.982;2022-12-10T05:00:30;95401.69;;;16.88;53.11
48390;BME280;34643;47.964;7.982;2022-12-10T05:05:32;95404.28;;;16.88;53.11
48390;BME280;34643;47.964;7.982;2022-12-10T05:10:34;95409.50;;;16.88;52.92
48390;BME280;34643;47.964;7.982;2022-12-10T05:15:37;95418.81;;;16.91;53.08
48390;BME280;34643;47.964;7.982;2022-12-10T05:20:37;95419.78;;;16.90;52.88
48390;BME280;34643;47.964;7.982;2022-12-10T05:25:38;95431.31;;;16.87;53.14
48390;BME280;34643;47.964;7.982;2022-12-10T05:30:52;95432.69;;;16.91;52.80
48390;BME280;34643;47.964;7.982;2022-12-10T05:35:57;95425.69;;;16.92;52.82
48390;BME280;34643;47.964;7.982;2022-12-10T05:41:02;95429.09;;;16.92;52.89
48390;BME280;34643;47.964;7.982;2022-12-10T05:46:04;95429.41;;;16.89;53.12
48390;BME280;34643;47.964;7.982;2022-12-10T05:51:05;95446.38;;;16.94;52.80
48390;BME280;34643;47.964;7.982;2022-12-10T05:56:06;95437.69;;;17.03;52.67
48390;BME280;34643;47.964;7.982;2022-12-10T06:01:08;95459.22;;;17.05;52.75
48390;BME280;34643;47.964;7.982;2022-12-10T06:06:09;95475.84;;;17.04;53.11
48390;BME280;34643;47.964;7.982;2022-12-10T06:11:10;95472.13;;;17.06;53.06
48390;BME280;34643;47.964;7.982;2022-12-10T06:16:11;95470.31;;;17.07;53.33
48390;BME280;34643;47.964;7.982;2022-12-10T06:21:13;95478.69;;;17.10;53.25
48390;BME280;34643;47.964;7.982;2022-12-10T06:26:15;95490.47;;;17.15;53.44
48390;BME280;34643;47.964;7.982;2022-12-10T06:31:15;95483.19;;;17.18;53.26
48390;BME280;34643;47.964;7.982;2022-12-10T06:36:16;95475.06;;;17.21;53.31
48390;BME280;34643;47.964;7.982;2022-12-10T06:41:17;95484.94;;;17.27;53.43
48390;BME280;34643;47.964;7.982;2022-12-10T06:46:19;95501.66;;;17.25;53.68
48390;BME280;34643;47.964;7.982;2022-12-10T06:51:19;95501.38;;;17.28;53.72
48390;BME280;34643;47.964;7.982;2022-12-10T06:56:20;95509.75;;;17.32;53.90
48390;BME280;34643;47.964;7.982;2022-12-10T07:01:22;95516.91;;;17.29;53.87
48390;BME280;34643;47.964;7.982;2022-12-10T07:06:22;95517.56;;;17.32;53.71
48390;BME280;34643;47.964;7.982;2022-12-10T07:11:24;95528.00;;;17.32;53.82
48390;BME280;34643;47.964;7.982;2022-12-10T07:16:25;95524.19;;;17.26;53.89
48390;BME280;34643;47.964;7.982;2022-12-10T07:21:27;95541.75;;;17.24;54.05
48390;BME280;34643;47.964;7.982;2022-12-10T07:26:28;95528.88;;;17.22;53.94
48390;BME280;34643;47.964;7.982;2022-12-10T07:31:29;95541.50;;;17.17;53.90
48390;BME280;34643;47.964;7.982;2022-12-10T07:36:29;95550.59;;;17.13;54.08
48390;BME280;34643;47.964;7.982;2022-12-10T07:41:29;95558.00;;;17.08;53.97
48390;BME280;34643;47.964;7.982;2022-12-10T07:46:32;95559.09;;;17.05;54.16
48390;BME280;34643;47.964;7.982;2022-12-10T07:51:32;95571.75;;;17.00;53.95
48390;BME280;34643;47.964;7.982;2022-12-10T07:56:32;95572.03;;;16.97;54.20
48390;BME280;34643;47.964;7.982;2022-12-10T08:01:33;95576.97;;;16.90;54.09
48390;BME280;34643;47.964;7.982;2022-12-10T08:06:33;95581.66;;;16.87;54.03
48390;BME280;34643;47.964;7.982;2022-12-10T08:11:35;95588.78;;;16.85;54.19
48390;BME280;34643;47.964;7.982;2022-12-10T08:16:35;95594.38;;;16.80;54.12
48390;BME280;34643;47.964;7.982;2022-12-10T08:21:35;95600.03;;;16.76;54.09
48390;BME280;34643;47.964;7.982;2022-12-10T08:26:36;95605.50;;;16.72;54.23
48390;BME280;34643;47.964;7.982;2022-12-10T08:31:36;95599.63;;;16.70;54.28
48390;BME280;34643;47.964;7.982;2022-12-10T08:36:36;95601.53;;;16.78;53.94
48390;BME280;34643;47.964;7.982;2022-12-10T08:41:37;95601.56;;;16.88;54.16
48390;BME280;34643;47.964;7.982;2022-12-10T08:46:37;95604.69;;;16.72;54.50
48390;BME280;34643;47.964;7.982;2022-12-10T08:51:38;95615.91;;;16.63;54.48
48390;BME280;34643;47.964;7.982;2022-12-10T08:56:39;95622.50;;;16.57;54.24
48390;BME280;34643;47.964;7.982;2022-12-10T09:01:39;95624.56;;;16.53;54.23
48390;BME280;34643;47.964;7.982;2022-12-10T09:06:40;95624.84;;;16.50;54.22
48390;BME280;34643;47.964;7.982;2022-12-10T09:11:40;95643.34;;;16.47;54.35
48390;BME280;34643;47.964;7.982;2022-12-10T09:16:41;95645.41;;;16.44;54.25
48390;BME280;34643;47.964;7.982;2022-12-10T09:21:41;95657.88;;;16.40;54.42
48390;BME280;34643;47.964;7.982;2022-12-10T09:26:43;95656.47;;;16.36;54.31
48390;BME280;34643;47.964;7.982;2022-12-10T09:31:43;95648.97;;;16.33;54.47
48390;BME280;34643;47.964;7.982;2022-12-10T09:36:44;95663.91;;;16.31;54.48
48390;BME280;34643;47.964;7.982;2022-12-10T09:41:51;95659.09;;;16.26;54.46
48390;BME280;34643;47.964;7.982;2022-12-10T09:46:54;95657.59;;;16.24;54.47
48390;BME280;34643;47.964;7.982;2022-12-10T09:51:56;95660.19;;;16.24;54.25
48390;BME280;34643;47.964;7.982;2022-12-10T09:56:58;95659.78;;;16.38;54.02
48390;BME280;34643;47.964;7.982;2022-12-10T10:07:20;95655.41;;;16.68;53.31
48390;BME280;34643;47.964;7.982;2022-12-10T10:12:21;95647.88;;;16.75;53.50
48390;BME280;34643;47.964;7.982;2022-12-10T10:17:22;95655.97;;;16.81;53.49
48390;BME280;34643;47.964;7.982;2022-12-10T10:22:27;95655.44;;;16.87;53.34
48390;BME280;34643;47.964;7.982;2022-12-10T10:27:28;95664.91;;;16.88;53.53
48390;BME280;34643;47.964;7.982;2022-12-10T10:42:37;95673.16;;;16.94;53.75
48390;BME280;34643;47.964;7.982;2022-12-10T10:47:38;95669.84;;;14.98;47.39
48390;BME280;34643;47.964;7.982;2022-12-10T10:52:38;95682.09;;;15.59;53.33
48390;BME280;34643;47.964;7.982;2022-12-10T10:57:41;95681.44;;;16.48;51.10
48390;BME280;34643;47.964;7.982;2022-12-10T11:02:42;95682.88;;;16.72;51.06
48390;BME280;34643;47.964;7.982;2022-12-10T11:07:42;95684.78;;;16.80;51.01
48390;BME280;34643;47.964;7.982;2022-12-10T11:12:44;95681.06;;;16.82;51.23
48390;BME280;34643;47.964;7.982;2022-12-10T11:17:51;95681.78;;;16.84;51.59
48390;BME280;34643;47.964;7.982;2022-12-10T11:22:56;95684.25;;;16.86;51.82
48390;BME280;34643;47.964;7.982;2022-12-10T11:28:01;95691.78;;;16.89;51.85
48390;BME280;34643;47.964;7.982;2022-12-10T11:33:21;95687.25;;;16.91;52.09
48390;BME280;34643;47.964;7.982;2022-12-10T11:38:46;95694.94;;;16.92;52.05
48390;BME280;34643;47.964;7.982;2022-12-10T11:59:47;95703.59;;;17.03;52.56
48390;BME280;34643;47.964;7.982;2022-12-10T12:15:27;95718.84;;;17.07;52.55
48390;BME280;34643;47.964;7.982;2022-12-10T12:20:31;95724.88;;;17.08;52.78
48390;BME280;34643;47.964;7.982;2022-12-10T12:25:36;95723.19;;;17.07;52.82
48390;BME280;34643;47.964;7.982;2022-12-10T12:30:38;95729.53;;;17.04;52.79
48390;BME280;34643;47.964;7.982;2022-12-10T12:35:42;95730.63;;;17.02;53.05
48390;BME280;34643;47.964;7.982;2022-12-10T12:40:45;95729.25;;;16.98;53.03
48390;BME280;34643;47.964;7.982;2022-12-10T12:45:49;95733.66;;;16.97;53.12
48390;BME280;34643;47.964;7.982;2022-12-10T13:01:04;95740.78;;;17.05;52.83
48390;BME280;34643;47.964;7.982;2022-12-10T13:11:17;95766.44;;;17.09;52.98
48390;BME280;34643;47.964;7.982;2022-12-10T13:16:58;95772.47;;;17.10;53.03
48390;BME280;34643;47.964;7.982;2022-12-10T13:27:02;95780.72;;;17.15;53.08
48390;BME280;34643;47.964;7.982;2022-12-10T13:32:03;95780.72;;;17.15;52.84
48390;BME280;34643;47.964;7.982;2022-12-10T13:37:06;95784.97;;;17.16;52.96
48390;BME280;34643;47.964;7.982;2022-12-10T13:57:53;95812.13;;;17.04;53.23
48390;BME280;34643;47.964;7.982;2022-12-10T14:08:11;95824.47;;;17.02;53.29
48390;BME280;34643;47.964;7.982;2022-12-10T14:13:15;95835.06;;;17.00;53.35
48390;BME280;34643;47.964;7.982;2022-12-10T14:18:16;95843.44;;;17.04;53.33
48390;BME280;34643;47.964;7.982;2022-12-10T14:23:25;95844.78;;;17.08;53.33
48390;BME280;34643;47.964;7.982;2022-12-10T14:28:42;95847.97;;;17.12;53.08
48390;BME280;34643;47.964;7.982;2022-12-10T14:33:44;95853.72;;;17.15;53.05
48390;BME280;34643;47.964;7.982;2022-12-10T14:38:45;95860.59;;;17.16;53.31
48390;BME280;34643;47.964;7.982;2022-12-10T14:43:47;95865.66;;;17.18;53.00
48390;BME280;34643;47.964;7.982;2022-12-10T14:48:48;95863.91;;;17.18;53.21
48390;BME280;34643;47.964;7.982;2022-12-10T14:53:50;95870.75;;;17.19;53.21
48390;BME280;34643;47.964;7.982;2022-12-10T14:59:09;95873.22;;;17.21;53.20
48390;BME280;34643;47.964;7.982;2022-12-10T15:04:20;95876.38;;;17.24;53.30
48390;BME280;34643;47.964;7.982;2022-12-10T15:09:22;95881.59;;;17.24;53.42
48390;BME280;34643;47.964;7.982;2022-12-10T15:14:24;95882.28;;;17.26;53.29
48390;BME280;34643;47.964;7.982;2022-12-10T15:24:36;95896.97;;;17.27;53.13
48390;BME280;34643;47.964;7.982;2022-12-10T15:29:37;95898.47;;;17.30;53.32
48390;BME280;34643;47.964;7.982;2022-12-10T15:34:38;95904.53;;;17.31;53.43
48390;BME280;34643;47.964;7.982;2022-12-10T15:39:44;95900.28;;;17.29;53.62
48390;BME280;34643;47.964;7.982;2022-12-10T15:44:45;95901.63;;;17.34;53.54
48390;BME280;34643;47.964;7.982;2022-12-10T15:49:46;95912.06;;;17.34;53.29
48390;BME280;34643;47.964;7.982;2022-12-10T15:54:47;95920.63;;;17.36;53.36
48390;BME280;34643;47.964;7.982;2022-12-10T15:59:49;95917.03;;;17.37;53.27
48390;BME280;34643;47.964;7.982;2022-12-10T16:04:49;95925.53;;;17.39;53.56
48390;BME280;34643;47.964;7.982;2022-12-10T16:09:49;95928.28;;;17.37;53.63
48390;BME280;34643;47.964;7.982;2022-12-10T16:14:51;95927.47;;;17.37;53.57
48390;BME280;34643;47.964;7.982;2022-12-10T16:20:05;95929.13;;;17.38;53.67
48390;BME280;34643;47.964;7.982;2022-12-10T16:25:12;95931.75;;;17.38;53.60
48390;BME280;34643;47.964;7.982;2022-12-10T16:30:14;95941.19;;;17.39;53.50
48390;BME280;34643;47.964;7.982;2022-12-10T16:35:16;95944.78;;;17.38;53.60
48390;BME280;34643;47.964;7.982;2022-12-10T16:40:17;95950.72;;;17.59;53.80
48390;BME280;34643;47.964;7.982;2022-12-10T16:45:19;95951.94;;;17.55;54.39
48390;BME280;34643;47.964;7.982;2022-12-10T16:50:20;95957.69;;;17.49;54.20
48390;BME280;34643;47.964;7.982;2022-12-10T16:55:23;95964.72;;;17.48;54.33
48390;BME280;34643;47.964;7.982;2022-12-10T17:00:24;95970.06;;;17.47;54.11
48390;BME280;34643;47.964;7.982;2022-12-10T17:05:29;95959.63;;;17.47;54.15
48390;BME280;34643;47.964;7.982;2022-12-10T17:10:30;95966.34;;;17.49;54.03
48390;BME280;34643;47.964;7.982;2022-12-10T17:15:49;95969.06;;;17.48;54.16
48390;BME280;34643;47.964;7.982;2022-12-10T17:20:50;95962.91;;;17.49;53.91
48390;BME280;34643;47.964;7.982;2022-12-10T17:25:50;95969.94;;;17.48;53.86
48390;BME280;34643;47.964;7.982;2022-12-10T17:30:51;95959.63;;;17.47;54.03
48390;BME280;34643;47.964;7.982;2022-12-10T17:35:52;95969.06;;;17.48;53.93
48390;BME280;34643;47.964;7.982;2022-12-10T17:40:52;95975.00;;;17.50;53.96
48390;BME280;34643;47.964;7.982;2022-12-10T17:45:54;95980.22;;;17.50;53.82
48390;BME280;34643;47.964;7.982;2022-12-10T17:50:55;95986.94;;;17.53;53.73
48390;BME280;34643;47.964;7.982;2022-12-10T17:55:56;95987.91;;;17.52;53.90
48390;BME280;34643;47.964;7.982;2022-12-10T18:00:57;95996.19;;;17.66;53.74
48390;BME280;34643;47.964;7.982;2022-12-10T18:05:58;95997.84;;;17.77;54.23
48390;BME280;34643;47.964;7.982;2022-12-10T18:10:58;96002.28;;;17.86;54.95
48390;BME280;34643;47.964;7.982;2022-12-10T18:15:58;96007.19;;;17.80;54.94
48390;BME280;34643;47.964;7.982;2022-12-10T18:20:59;96015.81;;;17.71;54.94
48390;BME280;34643;47.964;7.982;2022-12-10T18:25:59;96015.97;;;17.69;54.76
48390;BME280;34643;47.964;7.982;2022-12-10T18:31:00;96015.41;;;17.65;54.94
48390;BME280;34643;47.964;7.982;2022-12-10T18:36:00;96019.41;;;17.79;54.52
48390;BME280;34643;47.964;7.982;2022-12-10T18:41:00;96019.53;;;17.68;54.74
48390;BME280;34643;47.964;7.982;2022-12-10T18:46:00;96023.84;;;17.89;54.71
48390;BME280;34643;47.964;7.982;2022-12-10T18:51:01;96033.28;;;17.80;55.27
48390;BME280;34643;47.964;7.982;2022-12-10T18:56:01;96032.06;;;17.84;55.65
48390;BME280;34643;47.964;7.982;2022-12-10T19:01:01;96038.56;;;17.90;56.08
48390;BME280;34643;47.964;7.982;2022-12-10T19:06:02;96039.06;;;17.83;56.08
48390;BME280;34643;47.964;7.982;2022-12-10T19:11:02;96040.44;;;17.78;56.39
48390;BME280;34643;47.964;7.982;2022-12-10T19:16:03;96029.56;;;17.73;56.25
48390;BME280;34643;47.964;7.982;2022-12-10T19:21:04;96040.13;;;17.61;56.07
48390;BME280;34643;47.964;7.982;2022-12-10T19:26:09;96034.84;;;17.52;56.09
48390;BME280;34643;47.964;7.982;2022-12-10T19:31:13;96031.00;;;17.46;56.09
48390;BME280;34643;47.964;7.982;2022-12-10T19:36:21;96031.41;;;17.41;56.18
48390;BME280;34643;47.964;7.982;2022-12-10T19:41:22;96035.38;;;17.36;56.10
48390;BME280;34643;47.964;7.982;2022-12-10T19:46:23;96042.78;;;17.31;55.72
48390;BME280;34643;47.964;7.982;2022-12-10T19:51:23;96045.63;;;17.27;55.55
48390;BME280;34643;47.964;7.982;2022-12-10T19:56:25;96043.09;;;17.47;55.80
48390;BME280;34643;47.964;7.982;2022-12-10T20:01:26;96037.22;;;17.55;56.32
48390;BME280;34643;47.964;7.982;2022-12-10T20:06:28;96040.38;;;17.48;56.87
48390;BME280;34643;47.964;7.982;2022-12-10T20:11:30;96042.53;;;17.43;57.15
48390;BME280;34643;47.964;7.982;2022-12-10T20:16:31;96038.00;;;17.36;57.52
48390;BME280;34643;47.964;7.982;2022-12-10T20:21:31;96038.94;;;17.35;57.46
48390;BME280;34643;47.964;7.982;2022-12-10T20:26:33;96044.41;;;17.32;57.75
48390;BME280;34643;47.964;7.982;2022-12-10T20:31:33;96040.16;;;17.31;57.76
48390;BME280;34643;47.964;7.982;2022-12-10T20:36:35;96046.16;;;17.21;58.13
48390;BME280;34643;47.964;7.982;2022-12-10T20:41:35;96045.03;;;17.14;58.39
48390;BME280;34643;47.964;7.982;2022-12-10T20:46:35;96052.44;;;17.09;58.46
48390;BME280;34643;47.964;7.982;2022-12-10T20:51:36;96052.44;;;17.09;58.41
48390;BME280;34643;47.964;7.982;2022-12-10T20:56:37;96050.78;;;17.08;58.56
48390;BME280;34643;47.964;7.982;2022-12-10T21:01:37;96049.66;;;17.10;58.45
48390;BME280;34643;47.964;7.982;2022-12-10T21:06:37;96051.38;;;17.21;58.28
48390;BME280;34643;47.964;7.982;2022-12-10T21:11:38;96057.44;;;17.32;58.14
48390;BME280;34643;47.964;7.982;2022-12-10T21:16:38;96050.75;;;17.39;57.80
48390;BME280;34643;47.964;7.982;2022-12-10T21:21:39;96045.97;;;17.44;58.27
48390;BME280;34643;47.964;7.982;2022-12-10T21:26:39;96051.75;;;17.47;58.20
48390;BME280;34643;47.964;7.982;2022-12-10T21:31:39;96049.81;;;17.49;58.33
48390;BME280;34643;47.964;7.982;2022-12-10T21:36:39;96049.81;;;17.49;58.14
48390;BME280;34643;47.964;7.982;2022-12-10T21:41:40;96048.63;;;17.54;58.39
48390;BME280;34643;47.964;7.982;2022-12-10T21:47:09;96051.38;;;17.52;58.41
48390;BME280;34643;47.964;7.982;2022-12-10T21:52:12;96055.72;;;17.52;58.42
48390;BME280;34643;47.964;7.982;2022-12-10T21:57:12;96045.59;;;17.48;58.58
48390;BME280;34643;47.964;7.982;2022-12-10T22:02:13;96044.91;;;17.46;58.67
48390;BME280;34643;47.964;7.982;2022-12-10T22:07:13;96046.94;;;17.43;58.95
48390;BME280;34643;47.964;7.982;2022-12-10T22:12:13;96051.31;;;17.42;58.98
48390;BME280;34643;47.964;7.982;2022-12-10T22:17:13;96048.25;;;17.27;59.11
48390;BME280;34643;47.964;7.982;2022-12-10T22:22:14;96053.72;;;17.24;58.68
48390;BME280;34643;47.964;7.982;2022-12-10T22:27:14;96059.34;;;17.20;58.62
48390;BME280;34643;47.964;7.982;2022-12-10T22:32:14;96063.03;;;17.17;58.30
48390;BME280;34643;47.964;7.982;2022-12-10T22:37:15;96058.78;;;17.16;58.14
48390;BME280;34643;47.964;7.982;2022-12-10T22:42:15;96052.84;;;17.14;58.24
48390;BME280;34643;47.964;7.982;2022-12-10T22:47:15;96045.19;;;17.13;58.15
48390;BME280;34643;47.964;7.982;2022-12-10T22:52:16;96035.81;;;17.10;58.06
48390;BME280;34643;47.964;7.982;2022-12-10T22:57:16;96038.44;;;17.10;57.90
48390;BME280;34643;47.964;7.982;2022-12-10T23:02:16;96040.78;;;17.13;57.63
48390;BME280;34643;47.964;7.982;2022-12-10T23:07:17;96049.41;;;17.14;57.70
48390;BME280;34643;47.964;7.982;2022-12-10T23:12:18;96039.81;;;17.14;57.45
48390;BME280;34643;47.964;7.982;2022-12-10T23:17:37;96040.78;;;17.13;57.63
48390;BME280;34643;47.964;7.982;2022-12-10T23:22:37;96037.06;;;17.16;57.52
48390;BME280;34643;47.964;7.982;2022-12-10T23:27:37;96034.47;;;17.16;57.32
48390;BME280;34643;47.964;7.982;2022-12-10T23:32:38;96028.69;;;17.12;57.62
48390;BME280;34643;47.964;7.982;2022-12-10T23:37:38;96018.66;;;17.07;57.63
48390;BME280;34643;47.964;7.982;2022-12-10T23:42:39;96013.31;;;17.09;57.43
48390;BME280;34643;47.964;7.982;2022-12-10T23:47:39;96014.97;;;17.10;57.52
48390;BME280;34643;47.964;7.982;2022-12-10T23:52:39;96010.72;;;17.09;57.56
48390;BME280;34643;47.964;7.982;2022-12-10T23:57:40;96004.78;;;17.07;57.70
